sensor_id;sensor_type;location;lat;lon;timestamp;P1;durP1;ratioP1;P2;durP2;ratioP2
27219;SDS011;45274;52.266;10.790;2024-02-21T00:01:16;15.52;;;4.20;;
27219;SDS011;45274;52.266;10.790;2024-02-21T00:03:42;11.68;;;3.55;;
27219;SDS011;45274;52.266;10.790;2024-02-21T00:06:08;15.55;;;4.40;;
27219;SDS011;45274;52.266;10.790;2024-02-21T00:08:33;14.32;;;4.30;;
27219;SDS011;45274;52.266;10.790;2024-02-21T00:10:58;15.68;;;4.47;;
27219;SDS011;45274;52.266;10.790;2024-02-21T00:13:24;15.23;;;4.28;;
27219;SDS011;45274;52.266;10.790;2024-02-21T00:15:49;18.75;;;4.35;;
27219;SDS011;45274;52.266;10.790;2024-02-21T00:18:15;14.23;;;4.40;;
27219;SDS011;45274;52.266;10.790;2024-02-21T00:20:40;14.50;;;4.35;;
27219;SDS011;45274;52.266;10.790;2024-02-21T00:23:05;16.40;;;4.32;;
27219;SDS011;45274;52.266;10.790;2024-02-21T00:25:31;16.73;;;4.40;;
27219;SDS011;45274;52.266;10.790;2024-02-21T00:27:56;16.45;;;4.50;;
27219;SDS011;45274;52.266;10.790;2024-02-21T00:30:21;14.95;;;4.25;;
27219;SDS011;45274;52.266;10.790;2024-02-21T00:32:47;13.82;;;3.80;;
27219;SDS011;45274;52.266;10.790;2024-02-21T00:35:13;16.05;;;4.80;;
27219;SDS011;45274;52.266;10.790;2024-02-21T00:37:39;14.43;;;5.00;;
27219;SDS011;45274;52.266;10.790;2024-02-21T00:40:04;13.30;;;4.70;;
27219;SDS011;45274;52.266;10.790;2024-02-21T00:42:30;12.98;;;4.57;;
27219;SDS011;45274;52.266;10.790;2024-02-21T00:44:56;16.42;;;4.90;;
27219;SDS011;45274;52.266;10.790;2024-02-21T00:47:21;17.95;;;5.45;;
27219;SDS011;45274;52.266;10.790;2024-02-21T00:49:47;15.60;;;4.85;;
27219;SDS011;45274;52.266;10.790;2024-02-21T00:52:12;13.02;;;5.20;;
27219;SDS011;45274;52.266;10.790;2024-02-21T00:54:37;19.95;;;5.30;;
27219;SDS011;45274;52.266;10.790;2024-02-21T00:57:03;14.95;;;4.85;;
27219;SDS011;45274;52.266;10.790;2024-02-21T00:59:28;22.60;;;5.03;;
27219;SDS011;45274;52.266;10.790;2024-02-21T01:01:53;17.50;;;5.75;;
27219;SDS011;45274;52.266;10.790;2024-02-21T01:04:19;24.55;;;6.18;;
27219;SDS011;45274;52.266;10.790;2024-02-21T01:06:44;17.73;;;5.63;;
27219;SDS011;45274;52.266;10.790;2024-02-21T01:09:10;21.35;;;6.60;;
27219;SDS011;45274;52.266;10.790;2024-02-21T01:11:36;18.77;;;5.43;;
27219;SDS011;45274;52.266;10.790;2024-02-21T01:14:01;17.05;;;5.80;;
27219;SDS011;45274;52.266;10.790;2024-02-21T01:16:27;17.40;;;5.75;;
27219;SDS011;45274;52.266;10.790;2024-02-21T01:18:53;26.13;;;6.30;;
27219;SDS011;45274;52.266;10.790;2024-02-21T01:21:18;19.88;;;6.07;;
27219;SDS011;45274;52.266;10.790;2024-02-21T01:23:43;17.40;;;6.47;;
27219;SDS011;45274;52.266;10.790;2024-02-21T01:26:09;20.05;;;6.97;;
27219;SDS011;45274;52.266;10.790;2024-02-21T01:28:38;17.00;;;6.43;;
27219;SDS011;45274;52.266;10.790;2024-02-21T01:31:03;18.67;;;6.32;;
27219;SDS011;45274;52.266;10.790;2024-02-21T01:33:29;19.10;;;6.57;;
27219;SDS011;45274;52.266;10.790;2024-02-21T01:35:59;14.95;;;6.13;;
27219;SDS011;45274;52.266;10.790;2024-02-21T01:38:28;18.38;;;5.90;;
27219;SDS011;45274;52.266;10.790;2024-02-21T01:40:53;14.65;;;6.10;;
27219;SDS011;45274;52.266;10.790;2024-02-21T01:43:19;15.23;;;6.05;;
27219;SDS011;45274;52.266;10.790;2024-02-21T01:45:47;16.00;;;6.15;;
27219;SDS011;45274;52.266;10.790;2024-02-21T01:48:24;20.83;;;6.43;;
27219;SDS011;45274;52.266;10.790;2024-02-21T01:50:50;18.25;;;6.75;;
27219;SDS011;45274;52.266;10.790;2024-02-21T01:53:17;17.08;;;6.95;;
27219;SDS011;45274;52.266;10.790;2024-02-21T01:55:46;15.25;;;7.28;;
27219;SDS011;45274;52.266;10.790;2024-02-21T01:58:13;18.52;;;7.07;;
27219;SDS011;45274;52.266;10.790;2024-02-21T02:00:38;16.52;;;6.97;;
27219;SDS011;45274;52.266;10.790;2024-02-21T02:03:10;15.55;;;7.25;;
27219;SDS011;45274;52.266;10.790;2024-02-21T02:05:41;17.83;;;7.00;;
27219;SDS011;45274;52.266;10.790;2024-02-21T02:08:14;19.38;;;7.68;;
27219;SDS011;45274;52.266;10.790;2024-02-21T02:10:44;24.20;;;7.95;;
27219;SDS011;45274;52.266;10.790;2024-02-21T02:13:10;20.13;;;8.48;;
27219;SDS011;45274;52.266;10.790;2024-02-21T02:15:43;15.35;;;7.85;;
27219;SDS011;45274;52.266;10.790;2024-02-21T02:18:10;18.45;;;8.68;;
27219;SDS011;45274;52.266;10.790;2024-02-21T02:20:37;28.52;;;9.30;;
27219;SDS011;45274;52.266;10.790;2024-02-21T02:25:48;21.00;;;8.57;;
27219;SDS011;45274;52.266;10.790;2024-02-21T02:28:14;22.00;;;9.13;;
27219;SDS011;45274;52.266;10.790;2024-02-21T02:30:40;19.90;;;8.88;;
27219;SDS011;45274;52.266;10.790;2024-02-21T02:33:05;21.52;;;8.98;;
27219;SDS011;45274;52.266;10.790;2024-02-21T02:35:31;20.20;;;9.27;;
27219;SDS011;45274;52.266;10.790;2024-02-21T02:37:57;22.10;;;8.68;;
27219;SDS011;45274;52.266;10.790;2024-02-21T02:40:23;21.92;;;9.30;;
27219;SDS011;45274;52.266;10.790;2024-02-21T02:42:49;23.23;;;9.50;;
27219;SDS011;45274;52.266;10.790;2024-02-21T02:45:16;24.90;;;9.25;;
27219;SDS011;45274;52.266;10.790;2024-02-21T02:47:42;19.58;;;9.05;;
27219;SDS011;45274;52.266;10.790;2024-02-21T02:50:07;16.83;;;8.48;;
27219;SDS011;45274;52.266;10.790;2024-02-21T02:52:33;21.58;;;9.20;;
27219;SDS011;45274;52.266;10.790;2024-02-21T02:54:58;20.95;;;8.95;;
27219;SDS011;45274;52.266;10.790;2024-02-21T02:57:24;16.42;;;9.02;;
27219;SDS011;45274;52.266;10.790;2024-02-21T02:59:52;17.38;;;9.05;;
27219;SDS011;45274;52.266;10.790;2024-02-21T03:02:18;19.23;;;9.90;;
27219;SDS011;45274;52.266;10.790;2024-02-21T03:04:43;22.33;;;9.95;;
27219;SDS011;45274;52.266;10.790;2024-02-21T03:07:09;20.13;;;9.43;;
27219;SDS011;45274;52.266;10.790;2024-02-21T03:09:36;25.08;;;9.63;;
27219;SDS011;45274;52.266;10.790;2024-02-21T03:12:05;18.65;;;9.18;;
27219;SDS011;45274;52.266;10.790;2024-02-21T03:14:31;17.45;;;8.88;;
27219;SDS011;45274;52.266;10.790;2024-02-21T03:17:00;25.30;;;9.95;;
27219;SDS011;45274;52.266;10.790;2024-02-21T03:19:27;22.75;;;9.52;;
27219;SDS011;45274;52.266;10.790;2024-02-21T03:21:53;22.30;;;10.02;;
27219;SDS011;45274;52.266;10.790;2024-02-21T03:24:19;20.95;;;9.60;;
27219;SDS011;45274;52.266;10.790;2024-02-21T03:26:44;18.52;;;9.38;;
27219;SDS011;45274;52.266;10.790;2024-02-21T03:29:12;21.75;;;9.70;;
27219;SDS011;45274;52.266;10.790;2024-02-21T03:31:38;20.13;;;9.43;;
27219;SDS011;45274;52.266;10.790;2024-02-21T03:34:04;21.05;;;9.43;;
27219;SDS011;45274;52.266;10.790;2024-02-21T03:36:29;21.60;;;9.43;;
27219;SDS011;45274;52.266;10.790;2024-02-21T03:38:55;25.35;;;10.07;;
27219;SDS011;45274;52.266;10.790;2024-02-21T03:41:20;21.95;;;9.02;;
27219;SDS011;45274;52.266;10.790;2024-02-21T03:43:46;18.77;;;8.70;;
27219;SDS011;45274;52.266;10.790;2024-02-21T03:46:14;22.80;;;8.95;;
27219;SDS011;45274;52.266;10.790;2024-02-21T03:48:40;22.30;;;10.05;;
27219;SDS011;45274;52.266;10.790;2024-02-21T03:51:06;19.33;;;10.10;;
27219;SDS011;45274;52.266;10.790;2024-02-21T03:53:31;21.05;;;9.98;;
27219;SDS011;45274;52.266;10.790;2024-02-21T03:55:56;17.23;;;10.07;;
27219;SDS011;45274;52.266;10.790;2024-02-21T03:58:24;21.10;;;9.85;;
27219;SDS011;45274;52.266;10.790;2024-02-21T04:00:50;20.10;;;9.57;;
27219;SDS011;45274;52.266;10.790;2024-02-21T04:03:16;21.25;;;9.63;;
27219;SDS011;45274;52.266;10.790;2024-02-21T04:05:42;23.45;;;9.75;;
27219;SDS011;45274;52.266;10.790;2024-02-21T04:08:07;21.90;;;10.07;;
27219;SDS011;45274;52.266;10.790;2024-02-21T04:10:33;19.42;;;9.93;;
27219;SDS011;45274;52.266;10.790;2024-02-21T04:12:58;18.73;;;9.75;;
27219;SDS011;45274;52.266;10.790;2024-02-21T04:15:24;28.25;;;9.10;;
27219;SDS011;45274;52.266;10.790;2024-02-21T04:17:49;21.60;;;9.48;;
27219;SDS011;45274;52.266;10.790;2024-02-21T04:20:16;19.52;;;9.57;;
27219;SDS011;45274;52.266;10.790;2024-02-21T04:22:45;17.92;;;9.68;;
27219;SDS011;45274;52.266;10.790;2024-02-21T04:25:10;20.33;;;10.00;;
27219;SDS011;45274;52.266;10.790;2024-02-21T04:27:37;23.52;;;10.07;;
27219;SDS011;45274;52.266;10.790;2024-02-21T04:30:03;19.17;;;8.68;;
27219;SDS011;45274;52.266;10.790;2024-02-21T04:32:29;17.92;;;9.25;;
27219;SDS011;45274;52.266;10.790;2024-02-21T04:34:54;23.67;;;9.32;;
27219;SDS011;45274;52.266;10.790;2024-02-21T04:37:20;16.65;;;8.70;;
27219;SDS011;45274;52.266;10.790;2024-02-21T04:39:45;17.48;;;8.95;;
27219;SDS011;45274;52.266;10.790;2024-02-21T04:42:11;19.75;;;9.43;;
27219;SDS011;45274;52.266;10.790;2024-02-21T04:44:36;19.17;;;8.75;;
27219;SDS011;45274;52.266;10.790;2024-02-21T04:47:03;22.33;;;9.27;;
27219;SDS011;45274;52.266;10.790;2024-02-21T04:49:29;17.38;;;8.40;;
27219;SDS011;45274;52.266;10.790;2024-02-21T04:51:54;20.92;;;9.00;;
27219;SDS011;45274;52.266;10.790;2024-02-21T04:54:20;19.33;;;8.60;;
27219;SDS011;45274;52.266;10.790;2024-02-21T04:56:45;21.15;;;9.82;;
27219;SDS011;45274;52.266;10.790;2024-02-21T04:59:11;22.10;;;8.35;;
27219;SDS011;45274;52.266;10.790;2024-02-21T05:01:36;21.15;;;8.50;;
27219;SDS011;45274;52.266;10.790;2024-02-21T05:04:01;17.60;;;8.93;;
27219;SDS011;45274;52.266;10.790;2024-02-21T05:06:27;17.35;;;8.95;;
27219;SDS011;45274;52.266;10.790;2024-02-21T05:08:53;16.38;;;8.15;;
27219;SDS011;45274;52.266;10.790;2024-02-21T05:11:20;19.60;;;9.07;;
27219;SDS011;45274;52.266;10.790;2024-02-21T05:13:46;17.40;;;8.38;;
27219;SDS011;45274;52.266;10.790;2024-02-21T05:16:13;18.23;;;8.50;;
27219;SDS011;45274;52.266;10.790;2024-02-21T05:18:40;18.60;;;8.80;;
27219;SDS011;45274;52.266;10.790;2024-02-21T05:21:05;23.35;;;8.77;;
27219;SDS011;45274;52.266;10.790;2024-02-21T05:23:31;18.45;;;8.57;;
27219;SDS011;45274;52.266;10.790;2024-02-21T05:25:56;17.05;;;8.65;;
27219;SDS011;45274;52.266;10.790;2024-02-21T05:28:22;16.45;;;8.77;;
27219;SDS011;45274;52.266;10.790;2024-02-21T05:30:47;18.70;;;8.25;;
27219;SDS011;45274;52.266;10.790;2024-02-21T05:33:13;20.77;;;8.38;;
27219;SDS011;45274;52.266;10.790;2024-02-21T05:35:46;12.95;;;8.30;;
27219;SDS011;45274;52.266;10.790;2024-02-21T05:38:11;16.42;;;8.50;;
27219;SDS011;45274;52.266;10.790;2024-02-21T05:40:36;14.82;;;8.25;;
27219;SDS011;45274;52.266;10.790;2024-02-21T05:43:02;23.52;;;8.48;;
27219;SDS011;45274;52.266;10.790;2024-02-21T05:45:27;18.63;;;8.13;;
27219;SDS011;45274;52.266;10.790;2024-02-21T05:47:53;19.13;;;8.23;;
27219;SDS011;45274;52.266;10.790;2024-02-21T05:50:18;19.50;;;8.18;;
27219;SDS011;45274;52.266;10.790;2024-02-21T05:52:44;19.90;;;9.20;;
27219;SDS011;45274;52.266;10.790;2024-02-21T05:55:09;16.60;;;8.80;;
27219;SDS011;45274;52.266;10.790;2024-02-21T05:57:35;15.20;;;8.38;;
27219;SDS011;45274;52.266;10.790;2024-02-21T06:00:02;15.75;;;9.32;;
27219;SDS011;45274;52.266;10.790;2024-02-21T06:02:30;15.63;;;8.45;;
27219;SDS011;45274;52.266;10.790;2024-02-21T06:04:55;17.40;;;8.15;;
27219;SDS011;45274;52.266;10.790;2024-02-21T06:07:21;17.23;;;7.97;;
27219;SDS011;45274;52.266;10.790;2024-02-21T06:09:46;18.40;;;8.23;;
27219;SDS011;45274;52.266;10.790;2024-02-21T06:12:11;21.20;;;8.50;;
27219;SDS011;45274;52.266;10.790;2024-02-21T06:14:37;18.13;;;8.85;;
27219;SDS011;45274;52.266;10.790;2024-02-21T06:17:02;17.00;;;8.52;;
27219;SDS011;45274;52.266;10.790;2024-02-21T06:19:28;18.27;;;8.73;;
27219;SDS011;45274;52.266;10.790;2024-02-21T06:21:53;15.10;;;7.75;;
27219;SDS011;45274;52.266;10.790;2024-02-21T06:24:18;17.50;;;9.18;;
27219;SDS011;45274;52.266;10.790;2024-02-21T06:26:44;18.75;;;8.60;;
27219;SDS011;45274;52.266;10.790;2024-02-21T06:29:10;21.58;;;9.75;;
27219;SDS011;45274;52.266;10.790;2024-02-21T06:31:36;16.90;;;9.18;;
27219;SDS011;45274;52.266;10.790;2024-02-21T06:34:02;15.00;;;8.73;;
27219;SDS011;45274;52.266;10.790;2024-02-21T06:36:27;17.00;;;8.80;;
27219;SDS011;45274;52.266;10.790;2024-02-21T06:38:53;20.75;;;9.15;;
27219;SDS011;45274;52.266;10.790;2024-02-21T06:41:18;20.15;;;9.07;;
27219;SDS011;45274;52.266;10.790;2024-02-21T06:43:47;18.15;;;8.95;;
27219;SDS011;45274;52.266;10.790;2024-02-21T06:46:26;23.40;;;8.45;;
27219;SDS011;45274;52.266;10.790;2024-02-21T06:48:53;19.27;;;8.80;;
27219;SDS011;45274;52.266;10.790;2024-02-21T06:51:21;15.13;;;7.90;;
27219;SDS011;45274;52.266;10.790;2024-02-21T06:53:47;20.02;;;8.80;;
27219;SDS011;45274;52.266;10.790;2024-02-21T06:56:12;24.55;;;11.25;;
27219;SDS011;45274;52.266;10.790;2024-02-21T06:58:37;16.80;;;8.07;;
27219;SDS011;45274;52.266;10.790;2024-02-21T07:01:03;20.00;;;8.90;;
27219;SDS011;45274;52.266;10.790;2024-02-21T07:03:28;20.40;;;7.85;;
27219;SDS011;45274;52.266;10.790;2024-02-21T07:05:54;16.23;;;8.23;;
27219;SDS011;45274;52.266;10.790;2024-02-21T07:08:19;20.08;;;8.52;;
27219;SDS011;45274;52.266;10.790;2024-02-21T07:10:44;17.30;;;8.40;;
27219;SDS011;45274;52.266;10.790;2024-02-21T07:13:10;20.52;;;9.63;;
27219;SDS011;45274;52.266;10.790;2024-02-21T07:15:35;16.60;;;8.32;;
27219;SDS011;45274;52.266;10.790;2024-02-21T07:18:01;14.93;;;8.43;;
27219;SDS011;45274;52.266;10.790;2024-02-21T07:20:27;19.92;;;8.32;;
27219;SDS011;45274;52.266;10.790;2024-02-21T07:22:52;18.65;;;8.85;;
27219;SDS011;45274;52.266;10.790;2024-02-21T07:25:18;22.20;;;9.00;;
27219;SDS011;45274;52.266;10.790;2024-02-21T07:27:44;17.45;;;8.35;;
27219;SDS011;45274;52.266;10.790;2024-02-21T07:30:09;17.52;;;9.23;;
27219;SDS011;45274;52.266;10.790;2024-02-21T07:32:35;18.88;;;8.90;;
27219;SDS011;45274;52.266;10.790;2024-02-21T07:35:00;15.25;;;8.43;;
27219;SDS011;45274;52.266;10.790;2024-02-21T07:37:26;11.68;;;7.22;;
27219;SDS011;45274;52.266;10.790;2024-02-21T07:39:51;16.30;;;7.97;;
27219;SDS011;45274;52.266;10.790;2024-02-21T07:42:17;18.58;;;8.40;;
27219;SDS011;45274;52.266;10.790;2024-02-21T07:44:42;12.85;;;7.65;;
27219;SDS011;45274;52.266;10.790;2024-02-21T07:47:08;18.33;;;7.82;;
27219;SDS011;45274;52.266;10.790;2024-02-21T07:49:40;18.20;;;8.40;;
27219;SDS011;45274;52.266;10.790;2024-02-21T07:52:06;16.95;;;7.95;;
27219;SDS011;45274;52.266;10.790;2024-02-21T07:54:31;16.75;;;8.45;;
27219;SDS011;45274;52.266;10.790;2024-02-21T07:56:56;14.88;;;7.70;;
27219;SDS011;45274;52.266;10.790;2024-02-21T07:59:22;14.38;;;7.15;;
27219;SDS011;45274;52.266;10.790;2024-02-21T08:01:47;15.23;;;7.82;;
27219;SDS011;45274;52.266;10.790;2024-02-21T08:04:12;16.55;;;7.75;;
27219;SDS011;45274;52.266;10.790;2024-02-21T08:06:38;16.80;;;7.60;;
27219;SDS011;45274;52.266;10.790;2024-02-21T08:09:03;13.90;;;6.97;;
27219;SDS011;45274;52.266;10.790;2024-02-21T08:11:29;22.27;;;7.50;;
27219;SDS011;45274;52.266;10.790;2024-02-21T08:13:54;15.15;;;7.30;;
27219;SDS011;45274;52.266;10.790;2024-02-21T08:16:20;15.43;;;7.07;;
27219;SDS011;45274;52.266;10.790;2024-02-21T08:18:45;12.68;;;7.22;;
27219;SDS011;45274;52.266;10.790;2024-02-21T08:21:10;14.73;;;7.00;;
27219;SDS011;45274;52.266;10.790;2024-02-21T08:23:36;13.38;;;6.80;;
27219;SDS011;45274;52.266;10.790;2024-02-21T08:26:04;15.73;;;7.20;;
27219;SDS011;45274;52.266;10.790;2024-02-21T08:28:30;14.90;;;7.00;;
27219;SDS011;45274;52.266;10.790;2024-02-21T08:30:57;12.63;;;6.40;;
27219;SDS011;45274;52.266;10.790;2024-02-21T08:33:22;16.02;;;7.07;;
27219;SDS011;45274;52.266;10.790;2024-02-21T08:35:51;13.85;;;6.65;;
27219;SDS011;45274;52.266;10.790;2024-02-21T08:38:16;16.42;;;6.93;;
27219;SDS011;45274;52.266;10.790;2024-02-21T08:40:42;19.15;;;7.88;;
27219;SDS011;45274;52.266;10.790;2024-02-21T08:43:07;15.55;;;6.53;;
27219;SDS011;45274;52.266;10.790;2024-02-21T08:45:33;19.92;;;6.80;;
27219;SDS011;45274;52.266;10.790;2024-02-21T08:47:58;13.32;;;6.45;;
27219;SDS011;45274;52.266;10.790;2024-02-21T08:50:23;16.27;;;7.38;;
27219;SDS011;45274;52.266;10.790;2024-02-21T08:52:49;17.88;;;7.53;;
27219;SDS011;45274;52.266;10.790;2024-02-21T08:55:14;16.48;;;7.22;;
27219;SDS011;45274;52.266;10.790;2024-02-21T08:57:40;15.50;;;6.93;;
27219;SDS011;45274;52.266;10.790;2024-02-21T09:00:05;12.82;;;6.40;;
27219;SDS011;45274;52.266;10.790;2024-02-21T09:02:39;14.98;;;7.05;;
27219;SDS011;45274;52.266;10.790;2024-02-21T09:05:05;14.20;;;6.25;;
27219;SDS011;45274;52.266;10.790;2024-02-21T09:07:31;16.70;;;8.15;;
27219;SDS011;45274;52.266;10.790;2024-02-21T09:09:57;17.58;;;6.68;;
27219;SDS011;45274;52.266;10.790;2024-02-21T09:12:22;13.38;;;6.65;;
27219;SDS011;45274;52.266;10.790;2024-02-21T09:14:47;17.27;;;6.57;;
27219;SDS011;45274;52.266;10.790;2024-02-21T09:17:15;13.75;;;6.70;;
27219;SDS011;45274;52.266;10.790;2024-02-21T09:19:42;13.98;;;6.78;;
27219;SDS011;45274;52.266;10.790;2024-02-21T09:22:07;13.98;;;6.47;;
27219;SDS011;45274;52.266;10.790;2024-02-21T09:24:33;17.38;;;6.32;;
27219;SDS011;45274;52.266;10.790;2024-02-21T09:26:58;13.40;;;6.40;;
27219;SDS011;45274;52.266;10.790;2024-02-21T09:29:25;15.40;;;6.45;;
27219;SDS011;45274;52.266;10.790;2024-02-21T09:31:50;14.40;;;6.45;;
27219;SDS011;45274;52.266;10.790;2024-02-21T09:34:17;13.10;;;6.20;;
27219;SDS011;45274;52.266;10.790;2024-02-21T09:36:43;14.27;;;6.22;;
27219;SDS011;45274;52.266;10.790;2024-02-21T09:39:09;17.42;;;5.68;;
27219;SDS011;45274;52.266;10.790;2024-02-21T09:41:39;12.25;;;5.53;;
27219;SDS011;45274;52.266;10.790;2024-02-21T09:44:13;12.75;;;5.22;;
27219;SDS011;45274;52.266;10.790;2024-02-21T09:49:19;11.88;;;5.28;;
27219;SDS011;45274;52.266;10.790;2024-02-21T09:54:22;13.20;;;4.53;;
27219;SDS011;45274;52.266;10.790;2024-02-21T09:56:48;14.52;;;4.57;;
27219;SDS011;45274;52.266;10.790;2024-02-21T09:59:16;12.63;;;4.57;;
27219;SDS011;45274;52.266;10.790;2024-02-21T10:01:42;11.45;;;4.90;;
27219;SDS011;45274;52.266;10.790;2024-02-21T10:04:09;14.43;;;4.28;;
27219;SDS011;45274;52.266;10.790;2024-02-21T10:06:35;9.10;;;4.38;;
27219;SDS011;45274;52.266;10.790;2024-02-21T10:09:02;11.40;;;4.45;;
27219;SDS011;45274;52.266;10.790;2024-02-21T10:11:28;7.45;;;3.90;;
27219;SDS011;45274;52.266;10.790;2024-02-21T10:14:06;9.05;;;4.45;;
27219;SDS011;45274;52.266;10.790;2024-02-21T10:16:32;9.23;;;4.55;;
27219;SDS011;45274;52.266;10.790;2024-02-21T10:18:59;12.02;;;4.57;;
27219;SDS011;45274;52.266;10.790;2024-02-21T10:21:24;12.23;;;4.75;;
27219;SDS011;45274;52.266;10.790;2024-02-21T10:23:50;9.23;;;3.72;;
27219;SDS011;45274;52.266;10.790;2024-02-21T10:26:20;10.63;;;4.10;;
27219;SDS011;45274;52.266;10.790;2024-02-21T10:28:46;11.13;;;4.82;;
27219;SDS011;45274;52.266;10.790;2024-02-21T10:31:26;10.05;;;4.50;;
27219;SDS011;45274;52.266;10.790;2024-02-21T10:36:28;9.65;;;4.43;;
27219;SDS011;45274;52.266;10.790;2024-02-21T10:38:54;11.07;;;4.28;;
27219;SDS011;45274;52.266;10.790;2024-02-21T10:41:20;9.82;;;4.05;;
27219;SDS011;45274;52.266;10.790;2024-02-21T10:43:47;8.90;;;3.85;;
27219;SDS011;45274;52.266;10.790;2024-02-21T10:46:18;10.82;;;4.57;;
27219;SDS011;45274;52.266;10.790;2024-02-21T10:48:45;9.38;;;4.05;;
27219;SDS011;45274;52.266;10.790;2024-02-21T10:51:16;11.60;;;4.03;;
27219;SDS011;45274;52.266;10.790;2024-02-21T10:56:26;10.30;;;4.05;;
27219;SDS011;45274;52.266;10.790;2024-02-21T10:58:54;10.70;;;3.90;;
27219;SDS011;45274;52.266;10.790;2024-02-21T11:01:25;8.25;;;3.65;;
27219;SDS011;45274;52.266;10.790;2024-02-21T11:03:54;9.63;;;3.45;;
27219;SDS011;45274;52.266;10.790;2024-02-21T11:06:21;10.38;;;3.42;;
27219;SDS011;45274;52.266;10.790;2024-02-21T11:08:47;9.00;;;3.65;;
27219;SDS011;45274;52.266;10.790;2024-02-21T11:11:23;8.05;;;3.33;;
27219;SDS011;45274;52.266;10.790;2024-02-21T11:13:49;7.43;;;3.13;;
27219;SDS011;45274;52.266;10.790;2024-02-21T11:16:21;8.00;;;3.97;;
27219;SDS011;45274;52.266;10.790;2024-02-21T11:18:48;11.50;;;4.00;;
27219;SDS011;45274;52.266;10.790;2024-02-21T11:21:13;7.72;;;3.30;;
27219;SDS011;45274;52.266;10.790;2024-02-21T11:23:39;5.88;;;3.17;;
27219;SDS011;45274;52.266;10.790;2024-02-21T11:26:08;12.70;;;3.20;;
27219;SDS011;45274;52.266;10.790;2024-02-21T11:28:34;6.63;;;3.58;;
27219;SDS011;45274;52.266;10.790;2024-02-21T11:31:11;6.78;;;3.45;;
27219;SDS011;45274;52.266;10.790;2024-02-21T11:33:40;10.15;;;3.38;;
27219;SDS011;45274;52.266;10.790;2024-02-21T11:36:10;6.93;;;3.20;;
27219;SDS011;45274;52.266;10.790;2024-02-21T11:38:36;9.50;;;3.33;;
27219;SDS011;45274;52.266;10.790;2024-02-21T11:41:01;8.63;;;3.63;;
27219;SDS011;45274;52.266;10.790;2024-02-21T11:43:27;10.27;;;3.30;;
27219;SDS011;45274;52.266;10.790;2024-02-21T11:45:59;10.63;;;3.78;;
27219;SDS011;45274;52.266;10.790;2024-02-21T11:48:26;9.63;;;3.55;;
27219;SDS011;45274;52.266;10.790;2024-02-21T11:50:55;6.90;;;3.03;;
27219;SDS011;45274;52.266;10.790;2024-02-21T11:53:21;10.73;;;3.45;;
27219;SDS011;45274;52.266;10.790;2024-02-21T11:55:47;8.43;;;3.92;;
27219;SDS011;45274;52.266;10.790;2024-02-21T11:58:13;10.90;;;3.90;;
27219;SDS011;45274;52.266;10.790;2024-02-21T12:00:38;9.05;;;3.92;;
27219;SDS011;45274;52.266;10.790;2024-02-21T12:03:05;11.18;;;3.17;;
27219;SDS011;45274;52.266;10.790;2024-02-21T12:05:31;10.73;;;3.97;;
27219;SDS011;45274;52.266;10.790;2024-02-21T12:07:57;7.57;;;3.58;;
27219;SDS011;45274;52.266;10.790;2024-02-21T12:10:23;12.30;;;4.30;;
27219;SDS011;45274;52.266;10.790;2024-02-21T12:12:51;11.15;;;4.05;;
27219;SDS011;45274;52.266;10.790;2024-02-21T12:15:17;13.27;;;3.63;;
27219;SDS011;45274;52.266;10.790;2024-02-21T12:17:44;11.88;;;3.70;;
27219;SDS011;45274;52.266;10.790;2024-02-21T12:20:10;10.27;;;3.65;;
27219;SDS011;45274;52.266;10.790;2024-02-21T12:22:39;6.68;;;3.25;;
27219;SDS011;45274;52.266;10.790;2024-02-21T12:25:04;10.00;;;3.55;;
27219;SDS011;45274;52.266;10.790;2024-02-21T12:27:42;7.97;;;3.22;;
27219;SDS011;45274;52.266;10.790;2024-02-21T12:30:08;7.82;;;3.63;;
27219;SDS011;45274;52.266;10.790;2024-02-21T12:32:35;6.32;;;3.20;;
27219;SDS011;45274;52.266;10.790;2024-02-21T12:35:01;8.30;;;3.05;;
27219;SDS011;45274;52.266;10.790;2024-02-21T12:37:27;11.32;;;3.65;;
27219;SDS011;45274;52.266;10.790;2024-02-21T12:39:52;9.40;;;3.25;;
27219;SDS011;45274;52.266;10.790;2024-02-21T12:42:18;7.68;;;3.30;;
27219;SDS011;45274;52.266;10.790;2024-02-21T12:44:44;5.85;;;3.08;;
27219;SDS011;45274;52.266;10.790;2024-02-21T12:47:09;8.75;;;3.45;;
27219;SDS011;45274;52.266;10.790;2024-02-21T12:49:35;8.13;;;3.50;;
27219;SDS011;45274;52.266;10.790;2024-02-21T12:52:00;8.32;;;3.28;;
27219;SDS011;45274;52.266;10.790;2024-02-21T12:54:26;8.50;;;3.28;;
27219;SDS011;45274;52.266;10.790;2024-02-21T12:56:51;12.20;;;3.63;;
27219;SDS011;45274;52.266;10.790;2024-02-21T12:59:17;7.72;;;3.28;;
27219;SDS011;45274;52.266;10.790;2024-02-21T13:01:42;9.68;;;3.70;;
27219;SDS011;45274;52.266;10.790;2024-02-21T13:04:07;7.95;;;3.30;;
27219;SDS011;45274;52.266;10.790;2024-02-21T13:06:33;7.15;;;3.35;;
27219;SDS011;45274;52.266;10.790;2024-02-21T13:08:58;8.10;;;2.80;;
27219;SDS011;45274;52.266;10.790;2024-02-21T13:11:24;7.70;;;3.20;;
27219;SDS011;45274;52.266;10.790;2024-02-21T13:13:52;9.70;;;3.17;;
27219;SDS011;45274;52.266;10.790;2024-02-21T13:16:18;6.30;;;2.95;;
27219;SDS011;45274;52.266;10.790;2024-02-21T13:18:43;6.70;;;2.97;;
27219;SDS011;45274;52.266;10.790;2024-02-21T13:21:10;8.90;;;2.97;;
27219;SDS011;45274;52.266;10.790;2024-02-21T13:23:35;6.40;;;3.45;;
27219;SDS011;45274;52.266;10.790;2024-02-21T13:26:01;5.93;;;2.67;;
27219;SDS011;45274;52.266;10.790;2024-02-21T13:28:26;9.23;;;3.00;;
27219;SDS011;45274;52.266;10.790;2024-02-21T13:30:52;7.90;;;2.88;;
27219;SDS011;45274;52.266;10.790;2024-02-21T13:33:18;9.93;;;3.00;;
27219;SDS011;45274;52.266;10.790;2024-02-21T13:35:46;8.27;;;3.08;;
27219;SDS011;45274;52.266;10.790;2024-02-21T13:38:11;6.93;;;3.00;;
27219;SDS011;45274;52.266;10.790;2024-02-21T13:40:37;8.20;;;2.60;;
27219;SDS011;45274;52.266;10.790;2024-02-21T13:43:02;7.60;;;2.88;;
27219;SDS011;45274;52.266;10.790;2024-02-21T13:45:27;6.43;;;2.40;;
27219;SDS011;45274;52.266;10.790;2024-02-21T13:47:53;8.70;;;2.67;;
27219;SDS011;45274;52.266;10.790;2024-02-21T13:50:19;8.02;;;2.55;;
27219;SDS011;45274;52.266;10.790;2024-02-21T13:52:47;7.90;;;2.88;;
27219;SDS011;45274;52.266;10.790;2024-02-21T13:55:12;8.55;;;2.70;;
27219;SDS011;45274;52.266;10.790;2024-02-21T13:57:37;5.40;;;2.60;;
27219;SDS011;45274;52.266;10.790;2024-02-21T14:00:06;7.80;;;2.70;;
27219;SDS011;45274;52.266;10.790;2024-02-21T14:02:35;9.90;;;2.70;;
27219;SDS011;45274;52.266;10.790;2024-02-21T14:05:01;7.43;;;2.42;;
27219;SDS011;45274;52.266;10.790;2024-02-21T14:07:29;8.15;;;2.38;;
27219;SDS011;45274;52.266;10.790;2024-02-21T14:09:55;6.05;;;2.53;;
27219;SDS011;45274;52.266;10.790;2024-02-21T14:12:20;7.68;;;2.38;;
27219;SDS011;45274;52.266;10.790;2024-02-21T14:14:46;12.93;;;2.65;;
27219;SDS011;45274;52.266;10.790;2024-02-21T14:17:12;7.00;;;2.00;;
27219;SDS011;45274;52.266;10.790;2024-02-21T14:19:38;8.23;;;2.30;;
27219;SDS011;45274;52.266;10.790;2024-02-21T14:22:03;5.93;;;2.20;;
27219;SDS011;45274;52.266;10.790;2024-02-21T14:24:28;8.18;;;2.97;;
27219;SDS011;45274;52.266;10.790;2024-02-21T14:26:54;7.20;;;2.33;;
27219;SDS011;45274;52.266;10.790;2024-02-21T14:29:20;6.10;;;2.47;;
27219;SDS011;45274;52.266;10.790;2024-02-21T14:31:46;8.13;;;2.88;;